Time;durP1;ratioP1;P1;durP2;ratioP2;P2;SDS_P1;SDS_P2;PMS_P1;PMS_P2;Temp;Humidity;BMP_temperature;BMP_pressure;BME280_temperature;BME280_humidity;BME280_pressure;Samples;Min_cycle;Max_cycle;Signal;HPM_P1;HPM_P2
2021/03/24 00:01:20;;;;;;;46.78;43.13;;;;;;;;;;5019866;28;20394;-53
2021/03/24 00:03:47;;;;;;;43.97;40.38;;;;;;;;;;5036811;28;20041;-53
2021/03/24 00:06:14;;;;;;;39.35;36.95;;;;;;;;;;5023888;28;20140;-50
2021/03/24 00:08:40;;;;;;;41.72;38.63;;;;;;;;;;5025752;28;20096;-50
2021/03/24 00:11:07;;;;;;;39.42;36.75;;;;;;;;;;5029390;28;20072;-53
2021/03/24 00:13:34;;;;;;;37.92;35.65;;;;;;;;;;5023532;28;20095;-52
2021/03/24 00:16:02;;;;;;;44.08;41.00;;;;;;;;;;5029378;28;20490;-52
2021/03/24 00:18:29;;;;;;;40.95;38.25;;;;;;;;;;5025092;28;20037;-51
2021/03/24 00:20:55;;;;;;;44.45;41.25;;;;;;;;;;5024814;28;20073;-50
2021/03/24 00:23:22;;;;;;;55.38;50.15;;;;;;;;;;5028105;28;20045;-50
2021/03/24 00:25:48;;;;;;;69.38;61.75;;;;;;;;;;5020124;28;20041;-53
2021/03/24 00:28:16;;;;;;;42.85;39.55;;;;;;;;;;5026972;28;20080;-53
2021/03/24 00:30:43;;;;;;;42.90;40.20;;;;;;;;;;5024826;28;20038;-52
2021/03/24 00:33:11;;;;;;;41.67;38.88;;;;;;;;;;5023036;28;20042;-53
2021/03/24 00:35:40;;;;;;;39.65;37.53;;;;;;;;;;5029319;28;20092;-52
2021/03/24 00:38:07;;;;;;;40.17;37.90;;;;;;;;;;5021694;28;20045;-54
2021/03/24 00:40:35;;;;;;;40.58;38.08;;;;;;;;;;5026717;28;20072;-52
2021/03/24 00:43:04;;;;;;;39.72;37.33;;;;;;;;;;5026592;28;20050;-51
2021/03/24 00:45:32;;;;;;;41.35;39.10;;;;;;;;;;5020473;28;20062;-52
2021/03/24 00:47:59;;;;;;;39.05;37.05;;;;;;;;;;5029364;28;20053;-53
2021/03/24 00:50:26;;;;;;;39.80;37.78;;;;;;;;;;5018166;28;20108;-53
2021/03/24 00:52:53;;;;;;;38.58;36.78;;;;;;;;;;5026334;28;20125;-49
2021/03/24 00:55:19;;;;;;;38.80;36.90;;;;;;;;;;5027598;28;20087;-52
2021/03/24 00:57:48;;;;;;;39.25;37.40;;;;;;;;;;5023877;28;20041;-53
2021/03/24 01:00:19;;;;;;;36.60;34.92;;;;;;;;;;5031496;28;20050;-53
2021/03/24 01:02:46;;;;;;;36.25;34.53;;;;;;;;;;5027066;28;20429;-53
2021/03/24 01:05:14;;;;;;;38.10;36.40;;;;;;;;;;5028809;28;20128;-52
2021/03/24 01:07:41;;;;;;;35.00;33.40;;;;;;;;;;5028280;28;20044;-52
2021/03/24 01:10:09;;;;;;;37.70;36.08;;;;;;;;;;5022661;28;20080;-52
2021/03/24 01:12:36;;;;;;;35.60;34.00;;;;;;;;;;5018199;28;20429;-49
2021/03/24 01:15:03;;;;;;;37.13;35.05;;;;;;;;;;5019459;28;20502;-53
2021/03/24 01:17:29;;;;;;;40.00;37.90;;;;;;;;;;5020642;28;20033;-52
2021/03/24 01:19:56;;;;;;;40.45;38.17;;;;;;;;;;5031854;28;20049;-53
2021/03/24 01:22:23;;;;;;;41.72;39.08;;;;;;;;;;5026427;28;20048;-53
2021/03/24 01:24:50;;;;;;;36.22;34.03;;;;;;;;;;5032215;28;20029;-49
2021/03/24 01:27:16;;;;;;;41.20;39.10;;;;;;;;;;5026912;28;20045;-52
2021/03/24 01:29:42;;;;;;;40.50;38.35;;;;;;;;;;5023258;28;20071;-52
2021/03/24 01:32:08;;;;;;;40.75;38.65;;;;;;;;;;5029331;28;20084;-53
2021/03/24 01:34:35;;;;;;;39.67;37.58;;;;;;;;;;5026136;28;20441;-52
2021/03/24 01:37:01;;;;;;;37.70;35.72;;;;;;;;;;5030398;28;20047;-53
2021/03/24 01:39:28;;;;;;;38.28;36.05;;;;;;;;;;5028590;28;20049;-52
2021/03/24 01:41:54;;;;;;;37.90;35.97;;;;;;;;;;5024391;28;20042;-53
2021/03/24 01:44:20;;;;;;;38.70;36.85;;;;;;;;;;5014734;28;20574;-53
2021/03/24 01:46:47;;;;;;;42.15;39.85;;;;;;;;;;5028210;28;20041;-50
2021/03/24 01:49:14;;;;;;;39.17;37.35;;;;;;;;;;5030019;28;20061;-49
2021/03/24 01:51:47;;;;;;;42.67;40.47;;;;;;;;;;5027459;28;20069;-54
2021/03/24 01:54:15;;;;;;;39.10;37.08;;;;;;;;;;5024244;28;20099;-53
2021/03/24 01:56:43;;;;;;;35.17;33.28;;;;;;;;;;5032263;28;20044;-53
2021/03/24 01:59:09;;;;;;;37.13;35.33;;;;;;;;;;5024232;28;20077;-52
2021/03/24 02:01:36;;;;;;;34.72;33.22;;;;;;;;;;5027735;28;20033;-53
2021/03/24 02:04:03;;;;;;;36.30;34.60;;;;;;;;;;5031152;28;20640;-53
2021/03/24 02:06:38;;;;;;;35.50;34.08;;;;;;;;;;5024582;28;20095;-53
2021/03/24 02:09:24;;;;;;;34.65;33.25;;;;;;;;;;5030297;28;20083;-52
2021/03/24 02:12:06;;;;;;;33.78;32.05;;;;;;;;;;5026408;28;20061;-53
2021/03/24 02:14:35;;;;;;;35.28;33.80;;;;;;;;;;5025026;28;20042;-52
2021/03/24 02:17:02;;;;;;;33.10;31.85;;;;;;;;;;5020230;28;20043;-53
2021/03/24 02:19:32;;;;;;;32.92;31.42;;;;;;;;;;5027321;28;20037;-53
2021/03/24 02:21:59;;;;;;;35.70;34.33;;;;;;;;;;5026496;28;20044;-53
2021/03/24 02:24:35;;;;;;;36.03;34.28;;;;;;;;;;5030530;28;20045;-51
2021/03/24 02:27:01;;;;;;;36.60;34.90;;;;;;;;;;5023999;28;20508;-52
2021/03/24 02:29:29;;;;;;;40.33;38.30;;;;;;;;;;5029635;28;20046;-53
2021/03/24 02:31:56;;;;;;;39.58;37.95;;;;;;;;;;5026419;28;20486;-53
2021/03/24 02:34:24;;;;;;;40.22;38.35;;;;;;;;;;5025819;28;20385;-52
2021/03/24 02:36:51;;;;;;;40.15;37.97;;;;;;;;;;5031197;28;20084;-54
2021/03/24 02:39:19;;;;;;;38.58;36.40;;;;;;;;;;5025264;28;20035;-53
2021/03/24 02:41:45;;;;;;;41.60;39.53;;;;;;;;;;5028356;28;20078;-53
2021/03/24 02:44:12;;;;;;;41.13;39.33;;;;;;;;;;5029803;28;20064;-53
2021/03/24 02:46:39;;;;;;;40.38;38.55;;;;;;;;;;5026715;28;20661;-52
2021/03/24 02:52:00;;;;;;;42.67;40.50;;;;;;;;;;5011018;28;20526;-51
2021/03/24 02:54:29;;;;;;;38.25;36.40;;;;;;;;;;5005752;28;20122;-53
2021/03/24 02:56:56;;;;;;;41.15;39.03;;;;;;;;;;5010245;28;20509;-54
2021/03/24 02:59:22;;;;;;;39.55;37.55;;;;;;;;;;5007916;28;20486;-51
2021/03/24 03:02:10;;;;;;;37.55;35.63;;;;;;;;;;5008299;28;20042;-51
2021/03/24 03:04:41;;;;;;;37.65;36.08;;;;;;;;;;5008486;28;20120;-52
2021/03/24 03:07:25;;;;;;;39.50;37.63;;;;;;;;;;5010303;28;20038;-52
2021/03/24 03:09:57;;;;;;;37.67;36.03;;;;;;;;;;5009647;28;20099;-51
2021/03/24 03:12:30;;;;;;;39.30;36.65;;;;;;;;;;5008689;28;20061;-50
2021/03/24 03:15:08;;;;;;;39.88;37.45;;;;;;;;;;5008604;28;20052;-53
2021/03/24 03:17:41;;;;;;;40.97;38.67;;;;;;;;;;5009733;28;20034;-53
2021/03/24 03:20:13;;;;;;;40.45;38.65;;;;;;;;;;5006135;28;20551;-52
2021/03/24 03:22:44;;;;;;;40.22;38.50;;;;;;;;;;5006039;28;20136;-53
2021/03/24 03:25:19;;;;;;;37.17;35.53;;;;;;;;;;4992469;28;20129;-50
2021/03/24 03:27:48;;;;;;;41.00;39.05;;;;;;;;;;5005840;28;20045;-53
2021/03/24 03:30:15;;;;;;;37.03;35.30;;;;;;;;;;5016683;28;20104;-52
2021/03/24 03:32:43;;;;;;;39.00;37.38;;;;;;;;;;5015822;28;20482;-52
2021/03/24 03:35:12;;;;;;;36.30;34.72;;;;;;;;;;5021362;28;20038;-52
2021/03/24 03:37:39;;;;;;;37.63;35.88;;;;;;;;;;5019476;28;20076;-53
2021/03/24 03:40:09;;;;;;;40.33;38.30;;;;;;;;;;5024957;28;20045;-52
2021/03/24 03:43:02;;;;;;;39.53;37.53;;;;;;;;;;5022017;28;20069;-53
2021/03/24 03:45:29;;;;;;;40.33;38.60;;;;;;;;;;5030556;28;20052;-50
2021/03/24 03:47:55;;;;;;;40.85;38.88;;;;;;;;;;5016721;28;20049;-52
2021/03/24 03:50:24;;;;;;;43.22;41.00;;;;;;;;;;5017465;28;20037;-53
2021/03/24 03:52:56;;;;;;;41.22;39.25;;;;;;;;;;5029841;28;20030;-52
2021/03/24 03:55:37;;;;;;;39.40;37.70;;;;;;;;;;5022470;28;20573;-49
2021/03/24 03:58:12;;;;;;;38.60;37.22;;;;;;;;;;5029434;28;20034;-52
2021/03/24 04:00:48;;;;;;;35.92;34.63;;;;;;;;;;5013959;28;20048;-52
2021/03/24 04:03:16;;;;;;;37.28;35.78;;;;;;;;;;5021167;28;20073;-52
2021/03/24 04:05:47;;;;;;;37.33;36.13;;;;;;;;;;5028474;28;20061;-53
2021/03/24 04:08:14;;;;;;;36.97;35.58;;;;;;;;;;5021801;28;20057;-48
2021/03/24 04:10:45;;;;;;;40.38;38.65;;;;;;;;;;5024493;28;20112;-53
2021/03/24 04:13:11;;;;;;;38.50;36.70;;;;;;;;;;5028521;28;20693;-52
2021/03/24 04:15:38;;;;;;;39.20;37.33;;;;;;;;;;5023511;28;20141;-52
2021/03/24 04:18:16;;;;;;;41.08;38.90;;;;;;;;;;5028175;28;20041;-53
2021/03/24 04:20:44;;;;;;;43.70;41.53;;;;;;;;;;5027586;28;20152;-52
2021/03/24 04:23:13;;;;;;;39.33;37.45;;;;;;;;;;5024204;28;20374;-54
2021/03/24 04:25:48;;;;;;;35.15;33.45;;;;;;;;;;5023515;28;20049;-52
2021/03/24 04:28:16;;;;;;;37.88;36.28;;;;;;;;;;5022879;28;20137;-50
2021/03/24 04:30:54;;;;;;;37.63;35.72;;;;;;;;;;5026361;28;20367;-58
2021/03/24 04:33:20;;;;;;;39.30;37.63;;;;;;;;;;5013867;28;20476;-53
2021/03/24 04:35:47;;;;;;;38.28;36.28;;;;;;;;;;5024355;28;20030;-52
2021/03/24 04:38:52;;;;;;;41.30;39.20;;;;;;;;;;5034251;28;20034;-53
2021/03/24 04:41:22;;;;;;;40.20;38.22;;;;;;;;;;5010021;28;20046;-52
2021/03/24 04:43:54;;;;;;;38.60;36.67;;;;;;;;;;5008528;28;20133;-53
2021/03/24 04:46:36;;;;;;;40.35;38.30;;;;;;;;;;4998496;28;20076;-53
2021/03/24 04:49:04;;;;;;;42.88;40.67;;;;;;;;;;5011130;28;20501;-53
2021/03/24 04:51:32;;;;;;;42.08;39.92;;;;;;;;;;5007339;28;20110;-52
2021/03/24 04:54:19;;;;;;;40.75;38.83;;;;;;;;;;5004037;28;20046;-53
2021/03/24 04:56:49;;;;;;;40.85;38.70;;;;;;;;;;5001818;28;20089;-51
2021/03/24 04:59:21;;;;;;;39.63;37.83;;;;;;;;;;5001160;28;20067;-51
2021/03/24 05:01:50;;;;;;;40.33;38.22;;;;;;;;;;5011641;28;20069;-52
2021/03/24 05:04:23;;;;;;;41.00;39.28;;;;;;;;;;5007405;28;20052;-53
2021/03/24 05:06:56;;;;;;;42.72;40.40;;;;;;;;;;5006662;28;20105;-51
2021/03/24 05:09:22;;;;;;;42.08;39.85;;;;;;;;;;5010560;28;20049;-52
2021/03/24 05:12:09;;;;;;;40.33;37.83;;;;;;;;;;5014621;28;20050;-48
2021/03/24 05:14:40;;;;;;;39.10;36.83;;;;;;;;;;5032369;28;20049;-52
2021/03/24 05:17:06;;;;;;;42.45;40.35;;;;;;;;;;5028364;28;20124;-52
2021/03/24 05:19:33;;;;;;;40.53;38.30;;;;;;;;;;5025824;28;20062;-51
2021/03/24 05:22:11;;;;;;;43.63;41.38;;;;;;;;;;5032460;28;20468;-53
2021/03/24 05:24:40;;;;;;;41.05;39.05;;;;;;;;;;5026666;28;20068;-53
2021/03/24 05:27:12;;;;;;;40.80;38.80;;;;;;;;;;5026781;28;20038;-52
2021/03/24 05:29:42;;;;;;;40.78;38.70;;;;;;;;;;5030079;28;20386;-53
2021/03/24 05:32:14;;;;;;;38.60;36.92;;;;;;;;;;5023073;28;20049;-54
2021/03/24 05:34:41;;;;;;;43.13;41.35;;;;;;;;;;5022097;28;20537;-52
2021/03/24 05:37:09;;;;;;;41.20;39.17;;;;;;;;;;5026442;28;20040;-52
2021/03/24 05:39:37;;;;;;;36.00;34.67;;;;;;;;;;5024362;28;20034;-53
2021/03/24 05:42:20;;;;;;;42.40;40.72;;;;;;;;;;5023074;28;20041;-53
2021/03/24 05:44:49;;;;;;;40.85;39.35;;;;;;;;;;5024740;28;20434;-52
2021/03/24 05:47:18;;;;;;;35.63;34.33;;;;;;;;;;5018834;28;20120;-53
2021/03/24 05:49:48;;;;;;;44.20;42.40;;;;;;;;;;5030812;28;20073;-53
2021/03/24 05:52:26;;;;;;;45.42;42.97;;;;;;;;;;5024073;28;20087;-48
2021/03/24 05:55:00;;;;;;;41.28;39.28;;;;;;;;;;5025657;28;20048;-50
2021/03/24 05:57:41;;;;;;;45.22;43.03;;;;;;;;;;5027567;28;20091;-53
2021/03/24 06:00:38;;;;;;;38.58;36.97;;;;;;;;;;5021866;28;20726;-52
2021/03/24 06:03:08;;;;;;;40.88;38.88;;;;;;;;;;5033362;28;20072;-49
2021/03/24 06:05:38;;;;;;;45.13;43.13;;;;;;;;;;5046093;28;20041;-53
2021/03/24 06:08:22;;;;;;;43.97;41.63;;;;;;;;;;5041411;28;20539;-53
2021/03/24 06:11:00;;;;;;;45.47;42.20;;;;;;;;;;5042703;28;20741;-51
2021/03/24 06:13:44;;;;;;;46.67;43.58;;;;;;;;;;5036618;28;20445;-53
2021/03/24 06:16:29;;;;;;;48.28;44.67;;;;;;;;;;5038136;28;20065;-54
2021/03/24 06:19:34;;;;;;;50.13;45.88;;;;;;;;;;5040825;28;20052;-52
2021/03/24 06:22:18;;;;;;;48.90;44.72;;;;;;;;;;4949297;29;20050;-53
2021/03/24 06:25:01;;;;;;;47.67;43.85;;;;;;;;;;4947351;28;20047;-53
2021/03/24 06:27:46;;;;;;;50.22;46.08;;;;;;;;;;5012249;28;20045;-57
2021/03/24 06:30:12;;;;;;;45.67;42.60;;;;;;;;;;5045293;28;20428;-58
2021/03/24 06:32:44;;;;;;;39.35;37.35;;;;;;;;;;5041103;28;20049;-57
2021/03/24 06:35:29;;;;;;;38.60;37.03;;;;;;;;;;5048196;28;20536;-57
2021/03/24 06:38:10;;;;;;;38.65;37.03;;;;;;;;;;5046021;28;20048;-57
2021/03/24 06:40:50;;;;;;;36.10;34.38;;;;;;;;;;5024016;28;20049;-57
2021/03/24 06:43:22;;;;;;;42.30;40.38;;;;;;;;;;5029285;28;20041;-57
2021/03/24 06:45:48;;;;;;;36.75;35.05;;;;;;;;;;5028548;28;20037;-56
2021/03/24 06:48:33;;;;;;;37.30;35.75;;;;;;;;;;5027420;28;20045;-58
2021/03/24 06:50:59;;;;;;;37.33;35.80;;;;;;;;;;5031437;28;20088;-58
2021/03/24 06:53:46;;;;;;;41.75;39.42;;;;;;;;;;5025086;28;20047;-55
2021/03/24 06:56:31;;;;;;;70.90;64.05;;;;;;;;;;5023179;28;20543;-57
2021/03/24 06:59:15;;;;;;;43.33;40.13;;;;;;;;;;5024999;28;20037;-57
2021/03/24 07:01:50;;;;;;;40.08;37.28;;;;;;;;;;5025122;28;20088;-56
2021/03/24 07:04:19;;;;;;;44.22;40.97;;;;;;;;;;5025306;28;20513;-57
2021/03/24 07:07:05;;;;;;;35.75;34.25;;;;;;;;;;5030398;28;20493;-57
2021/03/24 07:09:43;;;;;;;35.20;33.60;;;;;;;;;;5024133;28;20062;-57
2021/03/24 07:12:32;;;;;;;32.97;31.50;;;;;;;;;;5027355;28;20045;-57
2021/03/24 07:14:59;;;;;;;34.78;33.58;;;;;;;;;;5024088;28;20104;-57
2021/03/24 07:17:34;;;;;;;38.33;36.53;;;;;;;;;;5022988;28;20030;-57
2021/03/24 07:20:01;;;;;;;39.53;37.33;;;;;;;;;;5026815;28;20045;-57
2021/03/24 07:22:30;;;;;;;35.35;33.25;;;;;;;;;;5014211;28;20042;-57
2021/03/24 07:25:11;;;;;;;40.60;38.10;;;;;;;;;;5021107;28;20122;-57
2021/03/24 07:27:37;;;;;;;35.28;33.47;;;;;;;;;;5029611;28;20029;-57
2021/03/24 07:30:18;;;;;;;32.08;30.52;;;;;;;;;;5025507;28;20053;-57
2021/03/24 07:32:51;;;;;;;30.52;29.17;;;;;;;;;;5023937;28;20120;-57
2021/03/24 07:35:18;;;;;;;86.20;58.42;;;;;;;;;;5030477;28;20037;-57
2021/03/24 07:37:47;;;;;;;49.40;44.28;;;;;;;;;;5025421;28;20441;-57
2021/03/24 07:40:26;;;;;;;42.55;38.40;;;;;;;;;;5026007;28;20450;-52
2021/03/24 07:43:03;;;;;;;39.92;36.78;;;;;;;;;;5030469;28;20478;-55
2021/03/24 07:45:33;;;;;;;31.27;29.38;;;;;;;;;;5022326;28;20053;-57
2021/03/24 07:48:28;;;;;;;31.58;29.80;;;;;;;;;;5026902;28;20042;-58
2021/03/24 07:50:55;;;;;;;25.98;24.58;;;;;;;;;;5010299;28;20054;-57
2021/03/24 07:53:30;;;;;;;14.10;13.65;;;;;;;;;;5021958;28;20037;-57
2021/03/24 07:56:10;;;;;;;18.77;18.02;;;;;;;;;;5028321;28;20489;-57
2021/03/24 07:58:45;;;;;;;10.90;10.43;;;;;;;;;;5027055;28;20037;-57
2021/03/24 08:01:11;;;;;;;11.40;10.85;;;;;;;;;;5021627;28;20689;-58
2021/03/24 08:03:44;;;;;;;9.45;9.05;;;;;;;;;;5013739;28;20069;-58
2021/03/24 08:06:13;;;;;;;8.43;7.85;;;;;;;;;;5023891;28;20595;-58
2021/03/24 08:08:42;;;;;;;5.97;5.88;;;;;;;;;;5026124;28;20049;-56
2021/03/24 08:11:22;;;;;;;8.32;8.07;;;;;;;;;;5028248;28;20060;-58
2021/03/24 08:14:07;;;;;;;28.60;18.95;;;;;;;;;;5023556;28;20120;-55
2021/03/24 08:16:50;;;;;;;13.93;12.50;;;;;;;;;;5026661;28;20417;-56
2021/03/24 08:19:35;;;;;;;13.80;12.45;;;;;;;;;;5027209;28;20041;-57
2021/03/24 08:22:21;;;;;;;13.13;10.45;;;;;;;;;;5022920;28;20134;-57
2021/03/24 08:24:54;;;;;;;16.27;11.93;;;;;;;;;;5026431;28;20034;-57
2021/03/24 08:27:43;;;;;;;18.63;14.20;;;;;;;;;;5028702;28;20038;-56
2021/03/24 08:30:12;;;;;;;13.30;10.32;;;;;;;;;;5018756;28;20113;-56
2021/03/24 08:32:50;;;;;;;6.70;6.28;;;;;;;;;;5026419;28;20486;-57
2021/03/24 08:35:23;;;;;;;5.05;4.90;;;;;;;;;;5028963;28;20053;-58
2021/03/24 08:37:59;;;;;;;4.65;4.55;;;;;;;;;;5024310;28;20042;-57
2021/03/24 08:40:41;;;;;;;23.70;13.13;;;;;;;;;;5028661;28;20103;-57
2021/03/24 08:43:26;;;;;;;5.65;5.55;;;;;;;;;;5025731;28;20053;-55
2021/03/24 08:45:52;;;;;;;5.28;5.07;;;;;;;;;;5021501;28;20057;-55
2021/03/24 08:48:30;;;;;;;5.68;5.38;;;;;;;;;;5029344;28;20037;-58
2021/03/24 08:51:02;;;;;;;6.47;6.07;;;;;;;;;;5024272;28;20070;-58
2021/03/24 08:53:28;;;;;;;6.82;6.53;;;;;;;;;;5023789;28;20037;-57
2021/03/24 08:56:24;;;;;;;5.38;5.18;;;;;;;;;;5028577;28;20077;-57
2021/03/24 08:59:09;;;;;;;6.55;6.18;;;;;;;;;;5015416;28;20058;-56
2021/03/24 09:01:35;;;;;;;4.93;4.68;;;;;;;;;;5017654;28;20501;-56
2021/03/24 09:04:14;;;;;;;3.40;3.20;;;;;;;;;;5012074;28;20053;-58
2021/03/24 09:06:55;;;;;;;3.67;3.47;;;;;;;;;;5022876;28;20087;-58
2021/03/24 09:09:28;;;;;;;2.95;2.13;;;;;;;;;;5020820;28;20072;-57
2021/03/24 09:12:14;;;;;;;3.13;2.85;;;;;;;;;;5041761;28;20495;-56
2021/03/24 09:14:44;;;;;;;2.97;2.28;;;;;;;;;;5023529;28;20045;-57
2021/03/24 09:17:13;;;;;;;2.03;2.00;;;;;;;;;;5024277;28;20426;-56
2021/03/24 09:19:46;;;;;;;2.10;2.10;;;;;;;;;;5027591;28;20091;-57
2021/03/24 09:22:12;;;;;;;1.40;1.40;;;;;;;;;;5021422;28;20505;-57
2021/03/24 09:24:41;;;;;;;1.55;1.55;;;;;;;;;;5016508;28;20033;-58
2021/03/24 09:27:07;;;;;;;1.50;1.50;;;;;;;;;;5030009;28;20045;-58
2021/03/24 09:29:46;;;;;;;1.63;1.52;;;;;;;;;;5028144;28;20494;-58
2021/03/24 09:32:15;;;;;;;1.45;1.27;;;;;;;;;;5032014;28;20035;-58
2021/03/24 09:34:58;;;;;;;1.38;1.38;;;;;;;;;;5025423;28;20103;-57
2021/03/24 09:37:35;;;;;;;1.33;1.33;;;;;;;;;;5029339;28;20101;-58
2021/03/24 09:40:04;;;;;;;1.30;1.20;;;;;;;;;;5015935;28;20064;-57
2021/03/24 09:42:31;;;;;;;5.95;1.35;;;;;;;;;;5024417;28;20068;-56
2021/03/24 09:45:12;;;;;;;1.20;1.20;;;;;;;;;;5031270;28;20564;-58
2021/03/24 09:47:41;;;;;;;1.70;1.60;;;;;;;;;;5029195;28;20065;-57
2021/03/24 09:50:22;;;;;;;1.85;1.50;;;;;;;;;;5023106;28;20149;-56
2021/03/24 09:52:55;;;;;;;1.65;1.55;;;;;;;;;;5016604;28;20125;-55
2021/03/24 09:55:24;;;;;;;1.30;1.27;;;;;;;;;;5029903;28;20552;-57
2021/03/24 09:57:54;;;;;;;1.67;1.33;;;;;;;;;;5025426;28;20064;-57
2021/03/24 10:00:20;;;;;;;1.25;1.10;;;;;;;;;;5031880;28;20052;-58
2021/03/24 10:02:56;;;;;;;1.75;1.58;;;;;;;;;;5024509;28;20045;-58
2021/03/24 10:05:27;;;;;;;1.50;1.30;;;;;;;;;;5030168;28;20053;-57
2021/03/24 10:08:02;;;;;;;1.20;1.10;;;;;;;;;;5029631;28;20041;-58
2021/03/24 10:10:31;;;;;;;1.10;1.10;;;;;;;;;;5024908;28;20061;-57
2021/03/24 10:13:27;;;;;;;1.05;1.02;;;;;;;;;;5030453;28;20059;-58
2021/03/24 10:15:53;;;;;;;1.08;1.08;;;;;;;;;;5009703;28;20153;-56
2021/03/24 10:18:22;;;;;;;1.00;1.00;;;;;;;;;;5009317;28;20050;-57
2021/03/24 10:20:59;;;;;;;0.90;0.90;;;;;;;;;;5003828;28;20120;-57
2021/03/24 10:23:40;;;;;;;1.10;1.10;;;;;;;;;;5008184;28;20677;-57
2021/03/24 10:26:20;;;;;;;0.98;0.98;;;;;;;;;;5007754;28;20089;-58
2021/03/24 10:28:57;;;;;;;1.10;0.98;;;;;;;;;;4992681;28;20481;-58
2021/03/24 10:31:36;;;;;;;1.48;1.05;;;;;;;;;;5007682;28;20077;-56
2021/03/24 10:34:11;;;;;;;1.00;1.00;;;;;;;;;;5009236;28;20687;-58
2021/03/24 10:36:44;;;;;;;1.08;1.05;;;;;;;;;;5009324;28;20132;-57
2021/03/24 10:39:13;;;;;;;0.90;0.90;;;;;;;;;;5008063;28;20054;-58
2021/03/24 10:41:47;;;;;;;1.58;1.30;;;;;;;;;;4994603;28;20364;-58
2021/03/24 10:44:14;;;;;;;1.67;1.48;;;;;;;;;;5009622;28;20062;-57
2021/03/24 10:46:42;;;;;;;1.00;1.00;;;;;;;;;;5008496;28;20053;-56
2021/03/24 10:49:16;;;;;;;0.93;0.93;;;;;;;;;;5009411;28;20522;-57
2021/03/24 10:52:01;;;;;;;1.00;1.00;;;;;;;;;;5007634;28;20129;-58
2021/03/24 10:54:30;;;;;;;2.20;2.10;;;;;;;;;;5021046;28;20121;-58
2021/03/24 10:56:56;;;;;;;1.40;1.30;;;;;;;;;;5030621;28;20053;-57
2021/03/24 10:59:36;;;;;;;1.00;1.00;;;;;;;;;;5018285;28;20037;-58
2021/03/24 11:02:08;;;;;;;1.17;1.00;;;;;;;;;;5016210;28;20507;-58
2021/03/24 11:04:50;;;;;;;2.80;1.00;;;;;;;;;;5027773;28;20045;-57
2021/03/24 11:07:16;;;;;;;2.28;1.20;;;;;;;;;;5022667;28;20092;-58
2021/03/24 11:09:48;;;;;;;1.00;0.90;;;;;;;;;;5027769;28;20050;-58
2021/03/24 11:12:17;;;;;;;1.00;1.00;;;;;;;;;;5029303;28;20565;-58
2021/03/24 11:15:04;;;;;;;1.00;1.00;;;;;;;;;;5023718;28;20129;-56
2021/03/24 11:17:34;;;;;;;4.32;0.90;;;;;;;;;;5028687;28;20037;-56
2021/03/24 11:20:33;;;;;;;1.10;1.10;;;;;;;;;;5022491;28;20524;-58
2021/03/24 11:23:02;;;;;;;2.50;2.30;;;;;;;;;;5019852;28;20079;-56
2021/03/24 11:25:36;;;;;;;2.00;0.98;;;;;;;;;;5027849;28;20038;-58
2021/03/24 11:28:18;;;;;;;2.13;1.10;;;;;;;;;;5023252;28;20039;-58
2021/03/24 11:30:47;;;;;;;0.85;0.85;;;;;;;;;;5022985;28;20417;-58
2021/03/24 11:33:22;;;;;;;0.98;0.90;;;;;;;;;;5029702;28;20144;-58
2021/03/24 11:36:10;;;;;;;0.85;0.85;;;;;;;;;;5022640;28;20525;-58
2021/03/24 11:38:39;;;;;;;1.30;1.30;;;;;;;;;;5019005;28;20080;-55
2021/03/24 11:41:36;;;;;;;0.98;0.95;;;;;;;;;;5018096;28;20050;-55
2021/03/24 11:44:09;;;;;;;1.05;1.05;;;;;;;;;;5025633;28;20115;-58
2021/03/24 11:46:42;;;;;;;1.02;0.90;;;;;;;;;;5026378;28;20544;-58
2021/03/24 11:49:16;;;;;;;1.23;1.23;;;;;;;;;;5026559;28;20099;-58
2021/03/24 11:51:42;;;;;;;1.27;1.27;;;;;;;;;;5021814;28;20037;-58
2021/03/24 11:54:11;;;;;;;0.90;0.90;;;;;;;;;;5027953;28;20033;-57
2021/03/24 11:56:50;;;;;;;4.03;1.48;;;;;;;;;;5020930;28;20110;-54
2021/03/24 11:59:37;;;;;;;0.90;0.90;;;;;;;;;;5024500;28;20128;-57
2021/03/24 12:02:06;;;;;;;0.80;0.80;;;;;;;;;;5027779;28;20041;-58
2021/03/24 12:04:35;;;;;;;3.58;1.60;;;;;;;;;;5023559;28;20038;-58
2021/03/24 12:07:11;;;;;;;1.27;1.00;;;;;;;;;;5025459;28;20049;-58
2021/03/24 12:09:38;;;;;;;1.55;1.00;;;;;;;;;;5027815;28;20038;-58
2021/03/24 12:12:11;;;;;;;0.93;0.93;;;;;;;;;;5023030;28;20046;-57
2021/03/24 12:14:38;;;;;;;1.05;1.05;;;;;;;;;;5027171;28;20038;-57
2021/03/24 12:17:25;;;;;;;3.90;1.02;;;;;;;;;;5023507;28;20634;-57
2021/03/24 12:19:51;;;;;;;1.23;1.23;;;;;;;;;;5025836;28;20046;-58
2021/03/24 12:22:18;;;;;;;1.08;1.02;;;;;;;;;;5027699;28;20076;-57
2021/03/24 12:24:46;;;;;;;0.90;0.90;;;;;;;;;;5022284;28;20084;-58
2021/03/24 12:27:12;;;;;;;1.10;1.00;;;;;;;;;;5027811;28;20030;-58
2021/03/24 12:29:39;;;;;;;1.35;1.20;;;;;;;;;;5026070;28;20049;-57
2021/03/24 12:32:15;;;;;;;1.67;1.38;;;;;;;;;;5024046;28;20038;-57
2021/03/24 12:34:43;;;;;;;1.95;1.15;;;;;;;;;;5027653;28;20038;-57
2021/03/24 12:37:25;;;;;;;1.40;1.40;;;;;;;;;;5024079;28;20046;-58
2021/03/24 12:39:53;;;;;;;2.00;1.05;;;;;;;;;;5024432;28;20474;-58
2021/03/24 12:42:21;;;;;;;4.40;1.23;;;;;;;;;;5014951;28;20034;-52
2021/03/24 12:44:48;;;;;;;0.98;0.98;;;;;;;;;;5024165;28;20077;-53
2021/03/24 12:47:30;;;;;;;1.17;1.00;;;;;;;;;;5027691;28;20128;-54
2021/03/24 12:50:09;;;;;;;0.90;0.90;;;;;;;;;;5026600;28;20041;-55
2021/03/24 12:52:40;;;;;;;1.77;1.00;;;;;;;;;;5023184;28;20030;-54
2021/03/24 12:55:08;;;;;;;1.10;1.10;;;;;;;;;;5028450;28;20049;-54
2021/03/24 12:57:41;;;;;;;2.38;1.00;;;;;;;;;;5028607;28;20121;-55
2021/03/24 13:00:26;;;;;;;1.48;1.30;;;;;;;;;;5027751;28;20120;-54
2021/03/24 13:03:27;;;;;;;1.27;1.27;;;;;;;;;;5026380;28;20452;-53
2021/03/24 13:06:06;;;;;;;1.00;1.00;;;;;;;;;;5030394;28;20359;-54
2021/03/24 13:08:37;;;;;;;1.30;1.20;;;;;;;;;;5025482;28;20134;-55
2021/03/24 13:11:23;;;;;;;3.83;2.50;;;;;;;;;;5017196;28;20041;-54
2021/03/24 13:14:04;;;;;;;28.27;15.95;;;;;;;;;;5029208;28;20764;-54
2021/03/24 13:16:56;;;;;;;24.63;18.02;;;;;;;;;;5026016;28;20041;-54
2021/03/24 13:19:42;;;;;;;1.00;1.00;;;;;;;;;;5021095;28;20311;-54
2021/03/24 13:22:26;;;;;;;2.15;1.00;;;;;;;;;;5027533;28;20041;-52
2021/03/24 13:24:53;;;;;;;1.10;1.00;;;;;;;;;;5022509;28;20041;-53
2021/03/24 13:27:20;;;;;;;3.17;1.02;;;;;;;;;;5032134;28;20053;-55
2021/03/24 13:29:54;;;;;;;1.55;1.02;;;;;;;;;;5024043;28;20056;-55
2021/03/24 13:32:46;;;;;;;2.00;1.17;;;;;;;;;;5022348;28;20038;-55
2021/03/24 13:35:13;;;;;;;1.08;0.95;;;;;;;;;;5008500;28;20133;-53
2021/03/24 13:37:39;;;;;;;1.20;1.20;;;;;;;;;;5008463;28;20133;-55
2021/03/24 13:40:05;;;;;;;0.90;0.90;;;;;;;;;;5007624;28;20067;-53
2021/03/24 13:42:34;;;;;;;0.90;0.90;;;;;;;;;;4999336;28;20037;-44
2021/03/24 13:45:15;;;;;;;1.42;1.30;;;;;;;;;;5006440;28;20081;-44
2021/03/24 13:47:59;;;;;;;2.47;0.90;;;;;;;;;;5010181;28;20053;-43
2021/03/24 13:50:36;;;;;;;1.80;1.00;;;;;;;;;;4999292;28;20042;-44
2021/03/24 13:53:06;;;;;;;0.90;0.90;;;;;;;;;;5006518;28;20064;-43
2021/03/24 13:55:46;;;;;;;0.90;0.90;;;;;;;;;;5008033;28;20516;-45
2021/03/24 13:58:12;;;;;;;1.83;1.10;;;;;;;;;;5010484;28;20086;-44
2021/03/24 14:00:41;;;;;;;0.90;0.80;;;;;;;;;;5007488;28;20244;-45
2021/03/24 14:03:46;;;;;;;0.90;0.90;;;;;;;;;;5009210;28;20054;-46
2021/03/24 14:06:31;;;;;;;1.10;1.00;;;;;;;;;;4970441;28;20388;-46
2021/03/24 14:09:16;;;;;;;1.13;0.90;;;;;;;;;;4971036;28;20051;-44
2021/03/24 14:11:45;;;;;;;1.00;1.00;;;;;;;;;;4989362;28;20042;-43
2021/03/24 14:14:11;;;;;;;6.32;4.30;;;;;;;;;;5027057;28;20049;-44
2021/03/24 14:16:37;;;;;;;1.63;1.52;;;;;;;;;;5025107;28;20099;-44
2021/03/24 14:19:04;;;;;;;1.00;1.00;;;;;;;;;;5025969;28;20160;-43
2021/03/24 14:21:49;;;;;;;1.00;1.00;;;;;;;;;;5019518;28;20560;-43
2021/03/24 14:24:15;;;;;;;1.00;1.00;;;;;;;;;;5018504;28;20052;-46
2021/03/24 14:26:55;;;;;;;0.90;0.90;;;;;;;;;;5028040;28;20045;-43
2021/03/24 14:29:40;;;;;;;1.63;0.90;;;;;;;;;;5025809;28;20490;-43
2021/03/24 14:32:12;;;;;;;1.10;1.10;;;;;;;;;;5029170;28;20030;-43
2021/03/24 14:34:52;;;;;;;0.90;0.90;;;;;;;;;;5039571;28;20034;-44
2021/03/24 14:37:30;;;;;;;1.00;1.00;;;;;;;;;;5022684;28;20054;-43
2021/03/24 14:40:17;;;;;;;1.00;1.00;;;;;;;;;;5028805;28;20500;-43
2021/03/24 14:42:49;;;;;;;3.10;0.85;;;;;;;;;;5027045;28;20191;-45
2021/03/24 14:45:34;;;;;;;0.80;0.80;;;;;;;;;;5023682;28;20044;-44
2021/03/24 14:48:19;;;;;;;1.20;1.10;;;;;;;;;;5030527;28;20054;-47
2021/03/24 14:51:19;;;;;;;1.98;0.90;;;;;;;;;;5027398;28;20684;-44
2021/03/24 14:53:45;;;;;;;0.90;0.90;;;;;;;;;;5024506;28;20069;-43
2021/03/24 14:56:30;;;;;;;0.82;0.82;;;;;;;;;;5029039;28;20406;-43
2021/03/24 14:58:56;;;;;;;1.55;1.00;;;;;;;;;;5043014;28;20495;-45
2021/03/24 15:01:31;;;;;;;2.35;0.85;;;;;;;;;;5024209;28;20044;-43
2021/03/24 15:04:11;;;;;;;0.82;0.82;;;;;;;;;;5030535;28;20497;-44
2021/03/24 15:06:40;;;;;;;1.00;1.00;;;;;;;;;;5024692;28;20389;-45
2021/03/24 15:09:08;;;;;;;1.38;0.90;;;;;;;;;;5025726;28;20096;-44